sensor_id;sensor_type;location;lat;lon;timestamp;temperature;humidity
21149;DHT22;10732;51.472;6.466;2022-07-10T00:02:05;14.20;99.90
21149;DHT22;10732;51.472;6.466;2022-07-10T00:04:31;14.20;99.90
21149;DHT22;10732;51.472;6.466;2022-07-10T00:06:56;14.30;99.90
21149;DHT22;10732;51.472;6.466;2022-07-10T00:09:24;14.30;99.90
21149;DHT22;10732;51.472;6.466;2022-07-10T00:11:49;14.30;99.90
21149;DHT22;10732;51.472;6.466;2022-07-10T00:14:15;14.40;99.90
21149;DHT22;10732;51.472;6.466;2022-07-10T00:16:41;14.40;99.90
21149;DHT22;10732;51.472;6.466;2022-07-10T00:19:06;14.40;99.90
21149;DHT22;10732;51.472;6.466;2022-07-10T00:21:32;14.40;99.90
21149;DHT22;10732;51.472;6.466;2022-07-10T00:23:58;14.40;99.90
21149;DHT22;10732;51.472;6.466;2022-07-10T00:26:23;14.40;99.90
21149;DHT22;10732;51.472;6.466;2022-07-10T00:28:49;14.40;99.90
21149;DHT22;10732;51.472;6.466;2022-07-10T00:31:14;14.40;99.90
21149;DHT22;10732;51.472;6.466;2022-07-10T00:33:40;14.40;99.90
21149;DHT22;10732;51.472;6.466;2022-07-10T00:36:06;14.40;99.90
21149;DHT22;10732;51.472;6.466;2022-07-10T00:38:32;14.40;99.90
21149;DHT22;10732;51.472;6.466;2022-07-10T00:40:58;14.40;99.90
21149;DHT22;10732;51.472;6.466;2022-07-10T00:43:23;14.50;99.90
21149;DHT22;10732;51.472;6.466;2022-07-10T00:45:49;14.50;99.90
21149;DHT22;10732;51.472;6.466;2022-07-10T00:48:15;14.50;99.90
21149;DHT22;10732;51.472;6.466;2022-07-10T00:50:42;14.60;99.90
21149;DHT22;10732;51.472;6.466;2022-07-10T00:53:08;14.60;99.90
21149;DHT22;10732;51.472;6.466;2022-07-10T00:55:36;14.60;99.90
21149;DHT22;10732;51.472;6.466;2022-07-10T00:58:02;14.60;99.90
21149;DHT22;10732;51.472;6.466;2022-07-10T01:00:30;14.60;99.90
21149;DHT22;10732;51.472;6.466;2022-07-10T01:02:56;14.60;99.90
21149;DHT22;10732;51.472;6.466;2022-07-10T01:05:21;14.60;99.90
21149;DHT22;10732;51.472;6.466;2022-07-10T01:07:47;14.60;99.90
21149;DHT22;10732;51.472;6.466;2022-07-10T01:10:12;14.50;99.90
21149;DHT22;10732;51.472;6.466;2022-07-10T01:12:38;14.50;99.90
21149;DHT22;10732;51.472;6.466;2022-07-10T01:15:04;14.50;99.90
21149;DHT22;10732;51.472;6.466;2022-07-10T01:17:30;14.50;99.90
21149;DHT22;10732;51.472;6.466;2022-07-10T01:19:56;14.50;99.90
21149;DHT22;10732;51.472;6.466;2022-07-10T01:22:22;14.50;99.90
21149;DHT22;10732;51.472;6.466;2022-07-10T01:24:47;14.50;99.90
21149;DHT22;10732;51.472;6.466;2022-07-10T01:27:13;14.50;99.90
21149;DHT22;10732;51.472;6.466;2022-07-10T01:29:39;14.40;99.90
21149;DHT22;10732;51.472;6.466;2022-07-10T01:32:05;14.40;99.90
21149;DHT22;10732;51.472;6.466;2022-07-10T01:34:31;14.30;99.90
21149;DHT22;10732;51.472;6.466;2022-07-10T01:36:56;14.40;99.90
21149;DHT22;10732;51.472;6.466;2022-07-10T01:39:22;14.30;99.90
21149;DHT22;10732;51.472;6.466;2022-07-10T01:41:47;14.30;99.90
21149;DHT22;10732;51.472;6.466;2022-07-10T01:44:13;14.30;99.90
21149;DHT22;10732;51.472;6.466;2022-07-10T01:46:46;14.20;99.90
21149;DHT22;10732;51.472;6.466;2022-07-10T01:49:12;14.10;99.90
21149;DHT22;10732;51.472;6.466;2022-07-10T01:51:37;14.10;99.90
21149;DHT22;10732;51.472;6.466;2022-07-10T01:54:03;14.00;99.90
21149;DHT22;10732;51.472;6.466;2022-07-10T01:56:29;14.00;99.90
21149;DHT22;10732;51.472;6.466;2022-07-10T01:58:54;14.00;99.90
21149;DHT22;10732;51.472;6.466;2022-07-10T02:01:20;14.00;99.90
21149;DHT22;10732;51.472;6.466;2022-07-10T02:03:45;14.00;99.90
21149;DHT22;10732;51.472;6.466;2022-07-10T02:06:29;14.00;99.90
21149;DHT22;10732;51.472;6.466;2022-07-10T02:08:55;14.00;99.90
21149;DHT22;10732;51.472;6.466;2022-07-10T02:11:21;13.90;99.90
21149;DHT22;10732;51.472;6.466;2022-07-10T02:13:46;13.90;99.90
21149;DHT22;10732;51.472;6.466;2022-07-10T02:16:12;13.80;99.90
21149;DHT22;10732;51.472;6.466;2022-07-10T02:18:38;13.70;99.90
21149;DHT22;10732;51.472;6.466;2022-07-10T02:21:04;13.60;99.90
21149;DHT22;10732;51.472;6.466;2022-07-10T02:23:30;13.60;99.90
21149;DHT22;10732;51.472;6.466;2022-07-10T02:25:56;13.60;99.90
21149;DHT22;10732;51.472;6.466;2022-07-10T02:28:22;13.60;99.90
21149;DHT22;10732;51.472;6.466;2022-07-10T02:30:47;13.60;99.90
21149;DHT22;10732;51.472;6.466;2022-07-10T02:33:13;13.60;99.90
21149;DHT22;10732;51.472;6.466;2022-07-10T02:35:38;13.60;99.90
21149;DHT22;10732;51.472;6.466;2022-07-10T02:38:04;13.70;99.90
21149;DHT22;10732;51.472;6.466;2022-07-10T02:40:29;13.70;99.90
21149;DHT22;10732;51.472;6.466;2022-07-10T02:42:55;13.70;99.90
21149;DHT22;10732;51.472;6.466;2022-07-10T02:45:20;13.70;99.90
21149;DHT22;10732;51.472;6.466;2022-07-10T02:47:46;13.70;99.90
21149;DHT22;10732;51.472;6.466;2022-07-10T02:50:12;13.70;99.90
21149;DHT22;10732;51.472;6.466;2022-07-10T02:52:37;13.60;99.90
21149;DHT22;10732;51.472;6.466;2022-07-10T02:55:03;13.50;99.90
21149;DHT22;10732;51.472;6.466;2022-07-10T02:57:28;13.40;99.90
21149;DHT22;10732;51.472;6.466;2022-07-10T02:59:54;13.30;99.90
21149;DHT22;10732;51.472;6.466;2022-07-10T03:02:20;13.30;99.90
21149;DHT22;10732;51.472;6.466;2022-07-10T03:04:45;13.20;99.90
21149;DHT22;10732;51.472;6.466;2022-07-10T03:07:11;13.10;99.90
21149;DHT22;10732;51.472;6.466;2022-07-10T03:09:36;13.00;99.90
21149;DHT22;10732;51.472;6.466;2022-07-10T03:12:02;13.00;99.90
21149;DHT22;10732;51.472;6.466;2022-07-10T03:14:28;12.90;99.90
21149;DHT22;10732;51.472;6.466;2022-07-10T03:16:53;12.80;99.90
21149;DHT22;10732;51.472;6.466;2022-07-10T03:19:19;12.80;99.90
21149;DHT22;10732;51.472;6.466;2022-07-10T03:21:44;12.80;99.90
21149;DHT22;10732;51.472;6.466;2022-07-10T03:24:11;12.70;99.90
21149;DHT22;10732;51.472;6.466;2022-07-10T03:26:37;12.60;99.90
21149;DHT22;10732;51.472;6.466;2022-07-10T03:29:02;12.60;99.90
21149;DHT22;10732;51.472;6.466;2022-07-10T03:31:28;12.50;99.90
21149;DHT22;10732;51.472;6.466;2022-07-10T03:33:53;12.50;99.90
21149;DHT22;10732;51.472;6.466;2022-07-10T03:36:19;12.40;99.90
21149;DHT22;10732;51.472;6.466;2022-07-10T03:38:45;12.40;99.90
21149;DHT22;10732;51.472;6.466;2022-07-10T03:41:12;12.40;99.90
21149;DHT22;10732;51.472;6.466;2022-07-10T03:43:38;12.40;99.90
21149;DHT22;10732;51.472;6.466;2022-07-10T03:46:03;12.40;99.90
21149;DHT22;10732;51.472;6.466;2022-07-10T03:48:29;12.40;99.90
21149;DHT22;10732;51.472;6.466;2022-07-10T03:50:54;12.40;99.90
21149;DHT22;10732;51.472;6.466;2022-07-10T03:53:20;12.40;99.90
21149;DHT22;10732;51.472;6.466;2022-07-10T03:55:46;12.40;99.90
21149;DHT22;10732;51.472;6.466;2022-07-10T03:58:11;12.50;99.90
21149;DHT22;10732;51.472;6.466;2022-07-10T04:00:37;12.50;99.90
21149;DHT22;10732;51.472;6.466;2022-07-10T04:03:07;12.50;99.90
21149;DHT22;10732;51.472;6.466;2022-07-10T04:05:33;12.50;99.90
21149;DHT22;10732;51.472;6.466;2022-07-10T04:08:00;12.50;99.90
21149;DHT22;10732;51.472;6.466;2022-07-10T04:10:27;12.50;99.90
21149;DHT22;10732;51.472;6.466;2022-07-10T04:12:53;12.60;99.90
21149;DHT22;10732;51.472;6.466;2022-07-10T04:15:20;12.60;99.90
21149;DHT22;10732;51.472;6.466;2022-07-10T04:17:46;12.80;99.90
21149;DHT22;10732;51.472;6.466;2022-07-10T04:20:12;12.90;99.90
21149;DHT22;10732;51.472;6.466;2022-07-10T04:22:37;13.00;99.90
21149;DHT22;10732;51.472;6.466;2022-07-10T04:25:04;13.20;99.90
21149;DHT22;10732;51.472;6.466;2022-07-10T04:27:30;13.40;99.90
21149;DHT22;10732;51.472;6.466;2022-07-10T04:29:56;13.60;99.90
21149;DHT22;10732;51.472;6.466;2022-07-10T04:32:22;13.80;99.90
21149;DHT22;10732;51.472;6.466;2022-07-10T04:34:47;14.00;99.90
21149;DHT22;10732;51.472;6.466;2022-07-10T04:37:13;14.10;99.90
21149;DHT22;10732;51.472;6.466;2022-07-10T04:39:39;14.20;99.90
21149;DHT22;10732;51.472;6.466;2022-07-10T04:42:06;14.10;99.90
21149;DHT22;10732;51.472;6.466;2022-07-10T04:44:32;14.00;99.90
21149;DHT22;10732;51.472;6.466;2022-07-10T04:46:57;14.00;99.90
21149;DHT22;10732;51.472;6.466;2022-07-10T04:49:24;14.00;99.90
21149;DHT22;10732;51.472;6.466;2022-07-10T04:51:49;14.20;99.90
21149;DHT22;10732;51.472;6.466;2022-07-10T04:54:15;14.30;99.90
21149;DHT22;10732;51.472;6.466;2022-07-10T04:56:41;14.50;99.90
21149;DHT22;10732;51.472;6.466;2022-07-10T04:59:06;14.80;99.90
21149;DHT22;10732;51.472;6.466;2022-07-10T05:01:33;15.10;99.90
21149;DHT22;10732;51.472;6.466;2022-07-10T05:03:58;15.50;99.90
21149;DHT22;10732;51.472;6.466;2022-07-10T05:06:24;15.80;99.90
21149;DHT22;10732;51.472;6.466;2022-07-10T05:08:50;15.70;99.90
21149;DHT22;10732;51.472;6.466;2022-07-10T05:11:15;15.70;99.90
21149;DHT22;10732;51.472;6.466;2022-07-10T05:13:41;15.50;99.90
21149;DHT22;10732;51.472;6.466;2022-07-10T05:16:10;15.40;99.90
21149;DHT22;10732;51.472;6.466;2022-07-10T05:18:36;15.30;99.90
21149;DHT22;10732;51.472;6.466;2022-07-10T05:21:02;15.10;99.90
21149;DHT22;10732;51.472;6.466;2022-07-10T05:23:27;15.20;99.90
21149;DHT22;10732;51.472;6.466;2022-07-10T05:25:53;15.10;99.90
21149;DHT22;10732;51.472;6.466;2022-07-10T05:28:18;15.10;99.90
21149;DHT22;10732;51.472;6.466;2022-07-10T05:30:44;15.00;99.90
21149;DHT22;10732;51.472;6.466;2022-07-10T05:33:09;15.00;99.90
21149;DHT22;10732;51.472;6.466;2022-07-10T05:35:35;14.90;99.90
21149;DHT22;10732;51.472;6.466;2022-07-10T05:38:01;14.90;99.90
21149;DHT22;10732;51.472;6.466;2022-07-10T05:40:27;15.10;99.90
21149;DHT22;10732;51.472;6.466;2022-07-10T05:42:52;15.20;99.90
21149;DHT22;10732;51.472;6.466;2022-07-10T05:45:18;15.20;99.90
21149;DHT22;10732;51.472;6.466;2022-07-10T05:47:44;15.20;99.90
21149;DHT22;10732;51.472;6.466;2022-07-10T05:50:10;15.40;99.90
21149;DHT22;10732;51.472;6.466;2022-07-10T05:52:37;15.40;99.90
21149;DHT22;10732;51.472;6.466;2022-07-10T05:55:03;15.40;99.90
21149;DHT22;10732;51.472;6.466;2022-07-10T05:57:30;15.40;99.90
21149;DHT22;10732;51.472;6.466;2022-07-10T05:59:56;15.40;99.90
21149;DHT22;10732;51.472;6.466;2022-07-10T06:02:22;15.40;99.90
21149;DHT22;10732;51.472;6.466;2022-07-10T06:04:47;15.60;99.90
21149;DHT22;10732;51.472;6.466;2022-07-10T06:07:13;15.70;99.90
21149;DHT22;10732;51.472;6.466;2022-07-10T06:09:39;15.90;99.90
21149;DHT22;10732;51.472;6.466;2022-07-10T06:12:04;16.30;99.90
21149;DHT22;10732;51.472;6.466;2022-07-10T06:14:30;16.40;99.90
21149;DHT22;10732;51.472;6.466;2022-07-10T06:16:55;16.60;99.90
21149;DHT22;10732;51.472;6.466;2022-07-10T06:19:21;16.60;99.90
21149;DHT22;10732;51.472;6.466;2022-07-10T06:21:47;16.20;99.90
21149;DHT22;10732;51.472;6.466;2022-07-10T06:24:12;16.10;99.90
21149;DHT22;10732;51.472;6.466;2022-07-10T06:26:38;16.10;99.90
21149;DHT22;10732;51.472;6.466;2022-07-10T06:29:03;16.10;99.90
21149;DHT22;10732;51.472;6.466;2022-07-10T06:31:29;16.20;99.90
21149;DHT22;10732;51.472;6.466;2022-07-10T06:33:55;16.60;99.90
21149;DHT22;10732;51.472;6.466;2022-07-10T06:36:20;16.90;99.90
21149;DHT22;10732;51.472;6.466;2022-07-10T06:38:46;17.00;99.90
21149;DHT22;10732;51.472;6.466;2022-07-10T06:41:11;17.40;99.90
21149;DHT22;10732;51.472;6.466;2022-07-10T06:43:37;17.80;99.90
21149;DHT22;10732;51.472;6.466;2022-07-10T06:46:03;18.00;99.90
21149;DHT22;10732;51.472;6.466;2022-07-10T06:48:28;17.60;99.90
21149;DHT22;10732;51.472;6.466;2022-07-10T06:50:54;18.10;99.90
21149;DHT22;10732;51.472;6.466;2022-07-10T06:53:20;17.90;99.90
21149;DHT22;10732;51.472;6.466;2022-07-10T06:55:51;18.10;99.90
21149;DHT22;10732;51.472;6.466;2022-07-10T06:58:17;18.40;99.90
21149;DHT22;10732;51.472;6.466;2022-07-10T07:00:42;18.30;99.90
21149;DHT22;10732;51.472;6.466;2022-07-10T07:03:08;18.50;99.90
21149;DHT22;10732;51.472;6.466;2022-07-10T07:05:34;18.00;99.90
21149;DHT22;10732;51.472;6.466;2022-07-10T07:07:59;17.70;99.90
21149;DHT22;10732;51.472;6.466;2022-07-10T07:10:25;18.10;99.90
21149;DHT22;10732;51.472;6.466;2022-07-10T07:12:50;18.10;99.90
21149;DHT22;10732;51.472;6.466;2022-07-10T07:15:16;18.20;99.90
21149;DHT22;10732;51.472;6.466;2022-07-10T07:17:42;18.40;99.90
21149;DHT22;10732;51.472;6.466;2022-07-10T07:20:43;18.50;99.90
21149;DHT22;10732;51.472;6.466;2022-07-10T07:23:28;18.80;99.90
21149;DHT22;10732;51.472;6.466;2022-07-10T07:25:53;19.20;99.90
21149;DHT22;10732;51.472;6.466;2022-07-10T07:28:20;19.10;99.90
21149;DHT22;10732;51.472;6.466;2022-07-10T07:30:49;19.00;99.90
21149;DHT22;10732;51.472;6.466;2022-07-10T07:33:15;19.60;99.90
21149;DHT22;10732;51.472;6.466;2022-07-10T07:35:41;19.80;99.90
21149;DHT22;10732;51.472;6.466;2022-07-10T07:38:08;19.60;99.90
21149;DHT22;10732;51.472;6.466;2022-07-10T07:40:33;20.10;99.90
21149;DHT22;10732;51.472;6.466;2022-07-10T07:42:59;20.30;99.90
21149;DHT22;10732;51.472;6.466;2022-07-10T07:45:26;19.70;99.90
21149;DHT22;10732;51.472;6.466;2022-07-10T07:47:57;19.50;99.90
21149;DHT22;10732;51.472;6.466;2022-07-10T07:50:27;19.40;99.90
21149;DHT22;10732;51.472;6.466;2022-07-10T07:52:54;19.40;99.90
21149;DHT22;10732;51.472;6.466;2022-07-10T07:55:21;19.70;99.90
21149;DHT22;10732;51.472;6.466;2022-07-10T07:57:48;19.90;99.90
21149;DHT22;10732;51.472;6.466;2022-07-10T08:00:15;19.70;99.90
21149;DHT22;10732;51.472;6.466;2022-07-10T08:02:43;19.80;99.90
21149;DHT22;10732;51.472;6.466;2022-07-10T08:05:09;19.90;99.90
21149;DHT22;10732;51.472;6.466;2022-07-10T08:07:42;19.80;99.90
21149;DHT22;10732;51.472;6.466;2022-07-10T08:10:16;19.80;99.90
21149;DHT22;10732;51.472;6.466;2022-07-10T08:12:43;18.70;99.90
21149;DHT22;10732;51.472;6.466;2022-07-10T08:15:11;18.50;99.90
21149;DHT22;10732;51.472;6.466;2022-07-10T08:17:38;18.20;99.90
21149;DHT22;10732;51.472;6.466;2022-07-10T08:20:05;18.30;99.90
21149;DHT22;10732;51.472;6.466;2022-07-10T08:22:32;18.00;99.90
21149;DHT22;10732;51.472;6.466;2022-07-10T08:24:58;18.40;99.90
21149;DHT22;10732;51.472;6.466;2022-07-10T08:27:24;18.70;99.90
21149;DHT22;10732;51.472;6.466;2022-07-10T08:29:50;18.60;99.90
21149;DHT22;10732;51.472;6.466;2022-07-10T08:32:15;18.00;99.90
21149;DHT22;10732;51.472;6.466;2022-07-10T08:34:41;18.70;99.90
21149;DHT22;10732;51.472;6.466;2022-07-10T08:37:06;18.50;99.90
21149;DHT22;10732;51.472;6.466;2022-07-10T08:39:32;18.30;99.90
21149;DHT22;10732;51.472;6.466;2022-07-10T08:41:59;18.40;99.90
21149;DHT22;10732;51.472;6.466;2022-07-10T08:44:24;18.50;99.90
21149;DHT22;10732;51.472;6.466;2022-07-10T08:46:50;18.40;99.90
21149;DHT22;10732;51.472;6.466;2022-07-10T08:49:17;18.60;99.90
21149;DHT22;10732;51.472;6.466;2022-07-10T08:54:27;19.10;99.90
21149;DHT22;10732;51.472;6.466;2022-07-10T08:56:52;19.00;99.90
21149;DHT22;10732;51.472;6.466;2022-07-10T08:59:18;18.90;99.90
21149;DHT22;10732;51.472;6.466;2022-07-10T09:01:44;18.80;99.90
21149;DHT22;10732;51.472;6.466;2022-07-10T09:04:21;19.30;99.90
21149;DHT22;10732;51.472;6.466;2022-07-10T09:06:47;19.70;99.90
21149;DHT22;10732;51.472;6.466;2022-07-10T09:09:13;19.30;99.90
21149;DHT22;10732;51.472;6.466;2022-07-10T09:11:40;19.80;99.90
21149;DHT22;10732;51.472;6.466;2022-07-10T09:14:10;19.80;99.90
21149;DHT22;10732;51.472;6.466;2022-07-10T09:16:45;20.10;99.90
21149;DHT22;10732;51.472;6.466;2022-07-10T09:19:22;20.10;99.90
21149;DHT22;10732;51.472;6.466;2022-07-10T09:22:02;19.80;99.90
21149;DHT22;10732;51.472;6.466;2022-07-10T09:24:38;20.10;99.90
21149;DHT22;10732;51.472;6.466;2022-07-10T09:27:04;19.80;99.90
21149;DHT22;10732;51.472;6.466;2022-07-10T09:29:31;19.70;99.90
21149;DHT22;10732;51.472;6.466;2022-07-10T09:32:01;19.80;99.90
21149;DHT22;10732;51.472;6.466;2022-07-10T09:34:45;19.60;99.90
21149;DHT22;10732;51.472;6.466;2022-07-10T09:39:54;19.10;99.90
21149;DHT22;10732;51.472;6.466;2022-07-10T09:47:40;21.70;99.90
21149;DHT22;10732;51.472;6.466;2022-07-10T09:50:22;21.10;99.90
21149;DHT22;10732;51.472;6.466;2022-07-10T09:52:50;21.10;99.90
21149;DHT22;10732;51.472;6.466;2022-07-10T09:55:19;21.10;99.90
21149;DHT22;10732;51.472;6.466;2022-07-10T09:57:46;21.00;99.90
21149;DHT22;10732;51.472;6.466;2022-07-10T10:00:14;21.20;99.90
21149;DHT22;10732;51.472;6.466;2022-07-10T10:02:40;21.00;99.90
21149;DHT22;10732;51.472;6.466;2022-07-10T10:05:07;21.10;99.90
21149;DHT22;10732;51.472;6.466;2022-07-10T10:07:35;21.50;99.90
21149;DHT22;10732;51.472;6.466;2022-07-10T10:10:04;21.70;99.90
21149;DHT22;10732;51.472;6.466;2022-07-10T10:12:42;22.60;99.90
21149;DHT22;10732;51.472;6.466;2022-07-10T10:15:10;22.30;99.90
21149;DHT22;10732;51.472;6.466;2022-07-10T10:17:38;21.90;99.90
21149;DHT22;10732;51.472;6.466;2022-07-10T10:20:06;20.80;99.90
21149;DHT22;10732;51.472;6.466;2022-07-10T10:22:52;20.70;99.90
21149;DHT22;10732;51.472;6.466;2022-07-10T10:25:21;20.40;99.90
21149;DHT22;10732;51.472;6.466;2022-07-10T10:27:49;20.10;99.90
21149;DHT22;10732;51.472;6.466;2022-07-10T10:30:15;20.20;99.90
21149;DHT22;10732;51.472;6.466;2022-07-10T10:32:41;20.60;99.90
21149;DHT22;10732;51.472;6.466;2022-07-10T10:35:07;20.00;99.90
21149;DHT22;10732;51.472;6.466;2022-07-10T10:37:36;20.40;99.90
21149;DHT22;10732;51.472;6.466;2022-07-10T10:40:03;20.10;99.90
21149;DHT22;10732;51.472;6.466;2022-07-10T10:42:33;20.20;99.90
21149;DHT22;10732;51.472;6.466;2022-07-10T10:48:06;20.30;99.90
21149;DHT22;10732;51.472;6.466;2022-07-10T10:53:19;20.30;99.90
21149;DHT22;10732;51.472;6.466;2022-07-10T11:01:04;20.70;99.90
21149;DHT22;10732;51.472;6.466;2022-07-10T11:03:30;20.60;99.90
21149;DHT22;10732;51.472;6.466;2022-07-10T11:05:57;20.50;99.90
21149;DHT22;10732;51.472;6.466;2022-07-10T11:08:36;20.90;99.90
21149;DHT22;10732;51.472;6.466;2022-07-10T11:13:59;20.50;99.90
21149;DHT22;10732;51.472;6.466;2022-07-10T11:16:25;20.60;99.90
21149;DHT22;10732;51.472;6.466;2022-07-10T11:18:54;20.30;99.90
21149;DHT22;10732;51.472;6.466;2022-07-10T11:21:23;20.00;99.90
21149;DHT22;10732;51.472;6.466;2022-07-10T11:24:15;19.70;99.90
21149;DHT22;10732;51.472;6.466;2022-07-10T11:27:15;19.60;99.90
21149;DHT22;10732;51.472;6.466;2022-07-10T11:29:46;19.20;99.90
21149;DHT22;10732;51.472;6.466;2022-07-10T11:32:18;19.20;99.90
21149;DHT22;10732;51.472;6.466;2022-07-10T11:34:43;19.80;99.90
21149;DHT22;10732;51.472;6.466;2022-07-10T11:37:15;20.20;99.90
21149;DHT22;10732;51.472;6.466;2022-07-10T11:39:41;20.70;99.90
21149;DHT22;10732;51.472;6.466;2022-07-10T11:42:07;20.60;99.90
21149;DHT22;10732;51.472;6.466;2022-07-10T11:44:33;20.60;99.90
21149;DHT22;10732;51.472;6.466;2022-07-10T11:46:59;20.60;99.90
21149;DHT22;10732;51.472;6.466;2022-07-10T11:49:25;20.70;99.90
21149;DHT22;10732;51.472;6.466;2022-07-10T11:51:52;20.60;99.90
21149;DHT22;10732;51.472;6.466;2022-07-10T11:54:19;20.50;99.90
21149;DHT22;10732;51.472;6.466;2022-07-10T11:56:49;20.30;99.90
21149;DHT22;10732;51.472;6.466;2022-07-10T11:59:18;20.70;99.90
21149;DHT22;10732;51.472;6.466;2022-07-10T12:01:49;20.20;99.90
21149;DHT22;10732;51.472;6.466;2022-07-10T12:04:17;19.80;99.90
21149;DHT22;10732;51.472;6.466;2022-07-10T12:06:45;19.80;99.90
21149;DHT22;10732;51.472;6.466;2022-07-10T12:09:16;20.30;99.90
21149;DHT22;10732;51.472;6.466;2022-07-10T12:11:44;20.90;99.90
21149;DHT22;10732;51.472;6.466;2022-07-10T12:16:41;22.30;99.90
21149;DHT22;10732;51.472;6.466;2022-07-10T12:19:08;22.50;99.90
21149;DHT22;10732;51.472;6.466;2022-07-10T12:21:35;23.00;99.90
21149;DHT22;10732;51.472;6.466;2022-07-10T12:24:00;22.80;99.90
21149;DHT22;10732;51.472;6.466;2022-07-10T12:26:33;22.50;99.90
21149;DHT22;10732;51.472;6.466;2022-07-10T12:29:00;22.40;99.90
21149;DHT22;10732;51.472;6.466;2022-07-10T12:31:31;22.40;99.90
21149;DHT22;10732;51.472;6.466;2022-07-10T12:34:02;22.20;99.90
21149;DHT22;10732;51.472;6.466;2022-07-10T12:39:14;22.00;99.90
21149;DHT22;10732;51.472;6.466;2022-07-10T12:42:05;22.10;99.90
21149;DHT22;10732;51.472;6.466;2022-07-10T12:44:45;23.00;99.90
21149;DHT22;10732;51.472;6.466;2022-07-10T12:47:13;23.10;99.90
21149;DHT22;10732;51.472;6.466;2022-07-10T12:52:27;23.60;99.90
21149;DHT22;10732;51.472;6.466;2022-07-10T12:57:32;23.90;99.90
21149;DHT22;10732;51.472;6.466;2022-07-10T13:00:05;23.90;99.90
21149;DHT22;10732;51.472;6.466;2022-07-10T13:02:31;24.20;99.90
21149;DHT22;10732;51.472;6.466;2022-07-10T13:04:58;24.20;99.90
21149;DHT22;10732;51.472;6.466;2022-07-10T13:07:34;24.30;99.90
21149;DHT22;10732;51.472;6.466;2022-07-10T13:10:02;24.30;99.90
21149;DHT22;10732;51.472;6.466;2022-07-10T13:12:28;24.20;99.90
21149;DHT22;10732;51.472;6.466;2022-07-10T13:14:54;24.40;99.90
21149;DHT22;10732;51.472;6.466;2022-07-10T13:17:20;24.50;99.90
21149;DHT22;10732;51.472;6.466;2022-07-10T13:19:45;24.20;99.90
21149;DHT22;10732;51.472;6.466;2022-07-10T13:22:12;23.40;99.90
21149;DHT22;10732;51.472;6.466;2022-07-10T13:24:37;23.70;99.90
21149;DHT22;10732;51.472;6.466;2022-07-10T13:27:03;24.00;99.90
21149;DHT22;10732;51.472;6.466;2022-07-10T13:29:29;24.50;99.90
21149;DHT22;10732;51.472;6.466;2022-07-10T13:31:55;24.40;99.90
21149;DHT22;10732;51.472;6.466;2022-07-10T13:34:20;24.00;99.90
21149;DHT22;10732;51.472;6.466;2022-07-10T13:36:46;24.00;99.90
21149;DHT22;10732;51.472;6.466;2022-07-10T13:39:11;23.60;99.90
21149;DHT22;10732;51.472;6.466;2022-07-10T13:41:37;24.00;99.90
21149;DHT22;10732;51.472;6.466;2022-07-10T13:44:03;24.30;99.90
21149;DHT22;10732;51.472;6.466;2022-07-10T13:46:29;24.00;99.90
21149;DHT22;10732;51.472;6.466;2022-07-10T13:48:54;23.30;99.90
21149;DHT22;10732;51.472;6.466;2022-07-10T13:51:20;22.50;99.90
21149;DHT22;10732;51.472;6.466;2022-07-10T13:53:46;22.20;99.90
21149;DHT22;10732;51.472;6.466;2022-07-10T13:56:11;22.40;99.90
21149;DHT22;10732;51.472;6.466;2022-07-10T13:58:37;22.50;99.90
21149;DHT22;10732;51.472;6.466;2022-07-10T14:01:03;22.50;99.90
21149;DHT22;10732;51.472;6.466;2022-07-10T14:03:30;22.50;99.90
21149;DHT22;10732;51.472;6.466;2022-07-10T14:05:57;22.30;99.90
21149;DHT22;10732;51.472;6.466;2022-07-10T14:08:22;22.60;99.90
21149;DHT22;10732;51.472;6.466;2022-07-10T14:10:48;23.10;99.90
21149;DHT22;10732;51.472;6.466;2022-07-10T14:13:14;23.30;99.90
21149;DHT22;10732;51.472;6.466;2022-07-10T14:15:40;23.60;99.90
21149;DHT22;10732;51.472;6.466;2022-07-10T14:18:11;23.50;99.90
21149;DHT22;10732;51.472;6.466;2022-07-10T14:20:37;23.50;99.90
21149;DHT22;10732;51.472;6.466;2022-07-10T14:23:27;23.60;99.90
21149;DHT22;10732;51.472;6.466;2022-07-10T14:25:53;23.30;99.90
21149;DHT22;10732;51.472;6.466;2022-07-10T14:28:20;23.60;99.90
21149;DHT22;10732;51.472;6.466;2022-07-10T14:30:46;23.90;99.90
21149;DHT22;10732;51.472;6.466;2022-07-10T14:33:12;23.50;99.90
21149;DHT22;10732;51.472;6.466;2022-07-10T14:35:38;23.50;99.90
21149;DHT22;10732;51.472;6.466;2022-07-10T14:38:03;23.70;99.90
21149;DHT22;10732;51.472;6.466;2022-07-10T14:40:29;23.90;99.90
21149;DHT22;10732;51.472;6.466;2022-07-10T14:42:55;23.70;99.90
21149;DHT22;10732;51.472;6.466;2022-07-10T14:45:22;24.20;99.90
21149;DHT22;10732;51.472;6.466;2022-07-10T14:47:49;24.00;99.90
21149;DHT22;10732;51.472;6.466;2022-07-10T14:50:15;24.00;99.90
21149;DHT22;10732;51.472;6.466;2022-07-10T14:52:42;23.90;99.90
21149;DHT22;10732;51.472;6.466;2022-07-10T14:55:08;23.90;99.90
21149;DHT22;10732;51.472;6.466;2022-07-10T14:57:34;24.10;99.90
21149;DHT22;10732;51.472;6.466;2022-07-10T15:00:00;24.00;99.90
21149;DHT22;10732;51.472;6.466;2022-07-10T15:02:25;23.00;99.90
21149;DHT22;10732;51.472;6.466;2022-07-10T15:04:51;22.20;99.90
21149;DHT22;10732;51.472;6.466;2022-07-10T15:07:17;22.60;99.90
21149;DHT22;10732;51.472;6.466;2022-07-10T15:09:46;22.80;99.90
21149;DHT22;10732;51.472;6.466;2022-07-10T15:12:12;22.80;99.90
21149;DHT22;10732;51.472;6.466;2022-07-10T15:14:38;23.10;99.90
21149;DHT22;10732;51.472;6.466;2022-07-10T15:17:04;23.10;99.90
21149;DHT22;10732;51.472;6.466;2022-07-10T15:19:30;23.00;99.90
21149;DHT22;10732;51.472;6.466;2022-07-10T15:21:56;23.20;99.90
21149;DHT22;10732;51.472;6.466;2022-07-10T15:24:21;23.30;99.90
21149;DHT22;10732;51.472;6.466;2022-07-10T15:26:47;23.10;99.90
21149;DHT22;10732;51.472;6.466;2022-07-10T15:29:13;23.20;99.90
21149;DHT22;10732;51.472;6.466;2022-07-10T15:31:39;23.10;99.90
21149;DHT22;10732;51.472;6.466;2022-07-10T15:34:08;23.10;99.90
21149;DHT22;10732;51.472;6.466;2022-07-10T15:36:34;23.10;99.90
21149;DHT22;10732;51.472;6.466;2022-07-10T15:38:59;23.10;99.90
21149;DHT22;10732;51.472;6.466;2022-07-10T15:41:25;23.00;99.90
21149;DHT22;10732;51.472;6.466;2022-07-10T15:43:51;23.30;99.90
21149;DHT22;10732;51.472;6.466;2022-07-10T15:46:16;23.30;99.90
21149;DHT22;10732;51.472;6.466;2022-07-10T15:48:42;23.20;99.90
21149;DHT22;10732;51.472;6.466;2022-07-10T15:51:08;22.90;99.90
21149;DHT22;10732;51.472;6.466;2022-07-10T15:53:34;23.00;99.90
21149;DHT22;10732;51.472;6.466;2022-07-10T15:55:59;23.20;99.90
21149;DHT22;10732;51.472;6.466;2022-07-10T15:58:26;23.20;99.90
21149;DHT22;10732;51.472;6.466;2022-07-10T16:00:51;23.10;99.90
21149;DHT22;10732;51.472;6.466;2022-07-10T16:03:17;23.10;99.90
21149;DHT22;10732;51.472;6.466;2022-07-10T16:05:42;22.90;99.90